createdAt,value
2019-01-17T00:00:16.241Z,7.37
2019-01-17T00:03:09.830Z,6.93
2019-01-17T00:06:03.741Z,6.30
2019-01-17T00:08:50.411Z,6.50
2019-01-17T00:11:41.735Z,6.80
2019-01-17T00:14:19.358Z,6.13
2019-01-17T00:17:16.686Z,5.63
2019-01-17T00:20:07.918Z,4.80
2019-01-17T00:22:56.338Z,5.10
2019-01-17T00:25:43.692Z,4.33
2019-01-17T00:28:40.964Z,3.83
2019-01-17T00:31:21.321Z,3.93
2019-01-17T00:34:08.176Z,4.17
2019-01-17T00:36:49.706Z,3.87
2019-01-17T00:39:28.511Z,4.67
2019-01-17T00:42:12.757Z,3.90
2019-01-17T00:44:59.753Z,3.60
2019-01-17T00:47:41.674Z,3.63
2019-01-17T00:50:24.911Z,3.60
2019-01-17T00:53:11.795Z,3.60
2019-01-17T00:56:03.101Z,5.00
2019-01-17T00:59:03.575Z,5.40
2019-01-17T01:01:44.724Z,5.20
2019-01-17T01:04:51.200Z,4.80
2019-01-17T01:07:45.149Z,4.57
2019-01-17T01:10:36.256Z,4.60
2019-01-17T01:13:43.256Z,4.03
2019-01-17T01:16:44.734Z,3.70
2019-01-17T01:19:23.238Z,3.40
2019-01-17T01:22:26.274Z,3.53
2019-01-17T01:25:23.491Z,3.20
2019-01-17T01:28:23.819Z,2.40
2019-01-17T01:31:20.941Z,2.60
2019-01-17T01:34:11.924Z,2.50
2019-01-17T01:37:01.855Z,2.60
2019-01-17T01:39:48.935Z,2.43
2019-01-17T01:42:35.878Z,3.17
2019-01-17T01:45:24.428Z,2.00
2019-01-17T01:48:30.763Z,1.73
2019-01-17T01:51:18.854Z,2.13
2019-01-17T01:53:47.921Z,2.10
2019-01-17T01:56:17.562Z,2.27
2019-01-17T01:58:46.833Z,1.93
2019-01-17T02:01:16.078Z,2.23
2019-01-17T02:03:45.328Z,2.03
2019-01-17T02:06:14.341Z,1.97
2019-01-17T02:08:43.647Z,2.37
2019-01-17T02:11:13.256Z,2.10
2019-01-17T02:13:44.863Z,2.43
2019-01-17T02:16:14.206Z,2.50
2019-01-17T02:18:43.201Z,2.47
2019-01-17T02:21:12.358Z,3.17
2019-01-17T02:23:41.372Z,3.03
2019-01-17T02:26:10.445Z,2.80
2019-01-17T02:28:39.415Z,3.47
2019-01-17T02:31:08.476Z,3.30
2019-01-17T02:33:37.519Z,3.60
2019-01-17T02:36:06.579Z,3.53
2019-01-17T02:38:35.627Z,3.37
2019-01-17T02:41:04.688Z,4.47
2019-01-17T02:43:33.779Z,4.60
2019-01-17T02:46:03.167Z,5.33
2019-01-17T02:48:33.265Z,5.10
2019-01-17T02:51:02.229Z,5.67
2019-01-17T02:53:31.569Z,5.53
2019-01-17T02:56:00.588Z,5.77
2019-01-17T02:58:29.562Z,5.33
2019-01-17T03:00:58.582Z,5.70
2019-01-17T03:03:27.524Z,5.73
2019-01-17T03:05:56.932Z,5.63
2019-01-17T03:08:26.000Z,5.23
2019-01-17T03:10:55.055Z,6.70
2019-01-17T03:13:24.064Z,6.60
2019-01-17T03:15:53.125Z,6.83
2019-01-17T03:18:22.160Z,6.43
2019-01-17T03:20:52.040Z,6.50
2019-01-17T03:23:21.014Z,6.27
2019-01-17T03:25:50.054Z,5.93
2019-01-17T03:28:19.426Z,6.17
2019-01-17T03:30:48.814Z,4.70
2019-01-17T03:33:18.130Z,3.90
2019-01-17T03:35:47.551Z,3.07
2019-01-17T03:38:16.578Z,2.70
2019-01-17T03:40:45.901Z,1.73
2019-01-17T03:43:14.938Z,1.80
2019-01-17T03:45:44.405Z,1.80
2019-01-17T03:48:13.461Z,1.53
2019-01-17T03:50:42.513Z,1.60
2019-01-17T03:53:11.599Z,1.50
2019-01-17T03:55:40.729Z,1.67
2019-01-17T03:58:09.740Z,1.50
2019-01-17T04:00:38.781Z,1.60
2019-01-17T04:03:08.507Z,1.30
2019-01-17T04:05:37.540Z,1.50
2019-01-17T04:08:06.788Z,1.40
2019-01-17T04:10:35.960Z,1.47
2019-01-17T04:13:05.710Z,1.40
2019-01-17T04:15:34.730Z,1.40
2019-01-17T04:18:04.077Z,1.60
2019-01-17T04:20:33.477Z,1.40
2019-01-17T04:23:02.562Z,1.50
2019-01-17T04:25:31.512Z,1.70
2019-01-17T04:28:00.470Z,1.50
2019-01-17T04:30:29.555Z,1.50
2019-01-17T04:32:58.956Z,1.40
2019-01-17T04:35:28.032Z,1.30
2019-01-17T04:37:56.995Z,1.90
2019-01-17T04:40:25.962Z,1.40
2019-01-17T04:42:54.975Z,1.67
2019-01-17T04:45:24.024Z,1.50
2019-01-17T04:47:53.365Z,1.50
2019-01-17T04:50:22.753Z,1.40
2019-01-17T04:52:51.682Z,1.40
2019-01-17T04:55:21.069Z,1.20
2019-01-17T04:57:50.138Z,1.70
2019-01-17T05:00:20.578Z,1.60
2019-01-17T05:02:49.717Z,1.83
2019-01-17T05:05:18.799Z,2.27
2019-01-17T05:07:48.264Z,2.17
2019-01-17T05:10:17.547Z,1.83
2019-01-17T05:12:46.943Z,1.90
2019-01-17T05:15:16.032Z,1.63
2019-01-17T05:17:45.110Z,2.40
2019-01-17T05:20:15.936Z,1.80
2019-01-17T05:22:45.158Z,1.90
2019-01-17T05:25:15.346Z,1.70
2019-01-17T05:27:44.373Z,2.30
2019-01-17T05:30:15.627Z,2.53
2019-01-17T05:32:44.757Z,3.33
2019-01-17T05:35:14.076Z,2.83
2019-01-17T05:37:43.173Z,3.13
2019-01-17T05:40:15.184Z,2.63
2019-01-17T05:42:44.617Z,3.50
2019-01-17T05:45:14.519Z,3.03
2019-01-17T05:47:44.011Z,3.50
2019-01-17T05:50:14.670Z,3.10
2019-01-17T05:52:43.692Z,2.67
2019-01-17T05:55:19.443Z,2.60
2019-01-17T05:57:43.535Z,2.67
2019-01-17T06:00:15.073Z,3.13
2019-01-17T06:02:44.212Z,2.57
2019-01-17T06:05:13.699Z,3.27
2019-01-17T06:07:42.706Z,2.83
2019-01-17T06:10:12.319Z,4.13
2019-01-17T06:12:41.908Z,3.97
2019-01-17T06:15:11.930Z,3.53
2019-01-17T06:17:40.890Z,3.90
2019-01-17T06:20:13.868Z,4.20
2019-01-17T06:22:43.716Z,4.80
2019-01-17T06:25:13.269Z,4.23
2019-01-17T06:27:43.503Z,4.40
2019-01-17T06:30:14.255Z,3.80
2019-01-17T06:32:44.885Z,3.77
2019-01-17T06:35:14.792Z,3.10
2019-01-17T06:37:44.364Z,3.43
2019-01-17T06:40:23.396Z,3.20
2019-01-17T06:42:53.676Z,2.80
2019-01-17T06:45:23.297Z,3.50
2019-01-17T06:47:54.743Z,3.50
2019-01-17T06:50:25.053Z,3.93
2019-01-17T06:52:54.745Z,3.70
2019-01-17T06:55:25.435Z,3.20
2019-01-17T06:57:58.902Z,2.80
2019-01-17T07:00:28.892Z,2.83
2019-01-17T07:02:59.042Z,2.73
2019-01-17T07:05:30.193Z,3.00
2019-01-17T07:08:02.083Z,2.30
2019-01-17T07:10:32.101Z,2.43
2019-01-17T07:13:02.803Z,2.80
2019-01-17T07:15:32.877Z,2.23
2019-01-17T07:18:04.352Z,2.20
2019-01-17T07:20:34.464Z,2.90
2019-01-17T07:23:04.861Z,2.60
2019-01-17T07:25:40.854Z,2.93
2019-01-17T07:28:06.676Z,3.10
2019-01-17T07:30:37.988Z,3.33
2019-01-17T07:33:07.163Z,2.77
2019-01-17T07:35:37.046Z,2.30
2019-01-17T07:38:06.853Z,3.23
2019-01-17T07:40:35.901Z,3.00
2019-01-17T07:43:04.958Z,2.57
2019-01-17T07:45:34.250Z,2.83
2019-01-17T07:48:03.328Z,2.67
2019-01-17T07:50:32.760Z,2.47
2019-01-17T07:53:01.790Z,2.80
2019-01-17T07:55:31.068Z,3.23
2019-01-17T07:58:00.127Z,2.57
2019-01-17T08:00:29.179Z,3.20
2019-01-17T08:02:58.275Z,3.00
2019-01-17T08:05:27.634Z,3.13
2019-01-17T08:07:56.714Z,2.90
2019-01-17T08:10:26.334Z,2.40
2019-01-17T08:12:55.362Z,2.40
2019-01-17T08:15:24.382Z,2.70
2019-01-17T08:17:53.456Z,2.30
2019-01-17T08:20:24.404Z,2.47
2019-01-17T08:22:54.166Z,2.23
2019-01-17T08:25:23.214Z,2.57
2019-01-17T08:27:52.248Z,2.60
2019-01-17T08:30:24.201Z,2.17
2019-01-17T08:32:53.298Z,2.47
2019-01-17T08:35:22.459Z,2.97
2019-01-17T08:37:51.546Z,2.20
2019-01-17T08:40:26.118Z,2.50
2019-01-17T08:42:55.133Z,3.13
2019-01-17T08:45:24.208Z,2.77
2019-01-17T08:47:53.684Z,3.67
2019-01-17T08:50:22.840Z,4.70
2019-01-17T08:52:51.938Z,4.10
2019-01-17T08:55:21.425Z,3.83
2019-01-17T08:57:51.132Z,3.97
2019-01-17T09:00:21.674Z,3.87
2019-01-17T09:02:54.287Z,3.90
2019-01-17T09:05:23.688Z,4.20
2019-01-17T09:07:52.647Z,3.77
2019-01-17T09:10:24.607Z,3.40
2019-01-17T09:12:53.679Z,3.60
2019-01-17T09:15:25.458Z,2.33
2019-01-17T09:17:54.875Z,2.20
2019-01-17T09:20:23.954Z,1.80
2019-01-17T09:22:53.100Z,1.80
2019-01-17T09:25:22.164Z,1.70
2019-01-17T09:27:51.169Z,1.87
2019-01-17T09:30:20.278Z,1.50
2019-01-17T09:32:49.800Z,1.50
2019-01-17T09:35:19.243Z,1.57
2019-01-17T09:37:48.353Z,1.90
2019-01-17T09:40:19.148Z,1.80
2019-01-17T09:42:48.664Z,1.50
2019-01-17T09:45:17.984Z,1.60
2019-01-17T09:47:47.333Z,1.63
2019-01-17T09:50:21.644Z,1.53
2019-01-17T09:52:51.096Z,1.50
2019-01-17T09:55:20.153Z,1.40
2019-01-17T09:57:49.196Z,3.50
2019-01-17T10:00:21.302Z,2.30
2019-01-17T10:02:50.365Z,1.40
2019-01-17T10:05:19.487Z,1.60
2019-01-17T10:07:48.511Z,1.70
2019-01-17T10:10:18.583Z,1.60
2019-01-17T10:12:47.692Z,1.50
2019-01-17T10:15:20.529Z,1.40
2019-01-17T10:18:28.837Z,2.07
2019-01-17T10:21:48.368Z,1.13
2019-01-17T10:24:50.516Z,1.20
2019-01-17T10:28:00.664Z,1.30
2019-01-17T10:31:05.912Z,1.00
2019-01-17T10:34:06.230Z,1.17
2019-01-17T10:37:33.038Z,1.00
2019-01-17T10:40:52.741Z,1.20
2019-01-17T10:44:06.048Z,1.80
2019-01-17T10:47:17.879Z,1.50
2019-01-17T10:50:16.398Z,1.73
2019-01-17T10:53:41.785Z,2.00
2019-01-17T10:57:03.944Z,1.57
2019-01-17T11:00:05.055Z,1.40
2019-01-17T11:03:12.422Z,1.10
2019-01-17T11:06:00.586Z,0.87
2019-01-17T11:09:16.868Z,1.10
2019-01-17T11:12:27.801Z,1.20
2019-01-17T11:15:43.782Z,1.97
2019-01-17T11:18:58.952Z,1.30
2019-01-17T11:21:57.229Z,1.50
2019-01-17T11:25:09.283Z,1.30
2019-01-17T11:28:12.525Z,1.57
2019-01-17T11:31:23.087Z,1.20
2019-01-17T11:34:45.272Z,1.50
2019-01-17T11:37:50.663Z,1.13
2019-01-17T11:40:51.788Z,1.30
2019-01-17T11:43:55.265Z,1.53
2019-01-17T11:46:42.211Z,1.57
2019-01-17T11:49:51.190Z,1.40
2019-01-17T11:52:56.734Z,1.60
2019-01-17T11:55:49.422Z,1.40
2019-01-17T11:59:00.275Z,1.40
2019-01-17T12:02:28.722Z,1.50
2019-01-17T12:04:56.238Z,1.70
2019-01-17T12:07:25.599Z,1.40
2019-01-17T12:09:54.620Z,1.23
2019-01-17T12:12:24.570Z,1.33
2019-01-17T12:14:56.373Z,1.20
2019-01-17T12:17:25.401Z,1.30
2019-01-17T12:19:54.683Z,1.20
2019-01-17T12:22:24.733Z,1.20
2019-01-17T12:24:54.564Z,1.40
2019-01-17T12:27:23.545Z,0.83
2019-01-17T12:29:52.637Z,0.70
2019-01-17T12:32:22.010Z,0.90
2019-01-17T12:34:51.418Z,1.17
2019-01-17T12:37:20.358Z,1.00
2019-01-17T12:39:49.327Z,1.00
2019-01-17T12:42:18.280Z,0.90
2019-01-17T12:44:47.245Z,0.83
2019-01-17T12:47:16.550Z,2.63
2019-01-17T12:49:45.556Z,0.73
2019-01-17T12:52:14.570Z,1.60
2019-01-17T12:54:43.548Z,0.93
2019-01-17T12:57:13.338Z,1.03
2019-01-17T12:59:43.256Z,0.87
2019-01-17T13:02:12.329Z,0.90
2019-01-17T13:04:41.372Z,1.00
2019-01-17T13:07:10.418Z,1.20
2019-01-17T13:09:39.573Z,1.00
2019-01-17T13:12:08.643Z,1.10
2019-01-17T13:14:38.384Z,1.20
2019-01-17T13:17:07.850Z,1.17
2019-01-17T13:19:37.231Z,1.37
2019-01-17T13:22:07.052Z,1.90
2019-01-17T13:24:36.100Z,1.87
2019-01-17T13:27:05.475Z,1.80
2019-01-17T13:29:34.627Z,2.80
2019-01-17T13:32:03.723Z,2.30
2019-01-17T13:34:33.064Z,2.40
2019-01-17T13:37:02.137Z,2.20
2019-01-17T13:39:31.451Z,2.50
2019-01-17T13:42:00.442Z,2.10
2019-01-17T13:44:29.314Z,2.10
2019-01-17T13:46:58.763Z,2.40
2019-01-17T13:49:28.018Z,2.50
2019-01-17T13:51:57.493Z,2.70
2019-01-17T13:54:26.591Z,2.77
2019-01-17T13:56:55.764Z,3.13
2019-01-17T13:59:24.713Z,3.23
2019-01-17T14:01:53.779Z,3.40
2019-01-17T14:04:23.132Z,4.47
2019-01-17T14:06:52.227Z,3.57
2019-01-17T14:09:21.308Z,3.50
2019-01-17T14:11:50.415Z,3.57
2019-01-17T14:14:22.197Z,3.83
2019-01-17T14:16:51.227Z,3.90
2019-01-17T14:19:20.655Z,3.47
2019-01-17T14:21:49.602Z,3.20
2019-01-17T14:24:18.883Z,2.93
2019-01-17T14:26:47.894Z,2.63
2019-01-17T14:29:16.914Z,2.70
2019-01-17T14:31:46.264Z,2.13
2019-01-17T14:34:15.659Z,2.13
2019-01-17T14:36:44.771Z,2.20
2019-01-17T14:39:13.750Z,1.60
2019-01-17T14:41:43.046Z,2.00
2019-01-17T14:44:12.358Z,1.73
2019-01-17T14:46:41.832Z,1.73
2019-01-17T14:49:11.013Z,1.73
2019-01-17T14:51:40.196Z,1.87
2019-01-17T14:54:09.318Z,2.17
2019-01-17T14:56:38.428Z,2.30
2019-01-17T14:59:07.813Z,2.57
2019-01-17T15:01:36.794Z,2.80
2019-01-17T15:04:06.321Z,2.53
2019-01-17T15:06:35.789Z,2.63
2019-01-17T15:09:07.786Z,2.30
2019-01-17T15:11:36.939Z,2.20
2019-01-17T15:14:06.017Z,2.93
2019-01-17T15:16:35.379Z,1.90
2019-01-17T15:19:04.434Z,1.80
2019-01-17T15:21:33.774Z,1.70
2019-01-17T15:24:02.824Z,1.47
2019-01-17T15:26:31.922Z,1.53
2019-01-17T15:29:01.827Z,1.60
2019-01-17T15:31:31.317Z,1.80
2019-01-17T15:34:00.774Z,1.93
2019-01-17T15:36:30.404Z,1.70
2019-01-17T15:38:59.444Z,1.20
2019-01-17T15:41:28.730Z,1.50
2019-01-17T15:43:57.911Z,1.47
2019-01-17T15:46:26.991Z,1.63
2019-01-17T15:48:56.280Z,1.83
2019-01-17T15:51:25.560Z,1.70
2019-01-17T15:53:54.599Z,1.50
2019-01-17T15:56:23.589Z,1.40
2019-01-17T15:58:52.791Z,1.43
2019-01-17T16:01:23.232Z,1.37
2019-01-17T16:03:52.128Z,2.37
2019-01-17T16:06:21.222Z,1.70
2019-01-17T16:08:50.389Z,1.30
2019-01-17T16:11:19.854Z,1.73
2019-01-17T16:13:48.793Z,1.37
2019-01-17T16:16:17.862Z,1.57
2019-01-17T16:18:46.820Z,1.47
2019-01-17T16:21:15.800Z,1.70
2019-01-17T16:23:44.880Z,1.30
2019-01-17T16:26:13.968Z,1.40
2019-01-17T16:28:43.860Z,1.27
2019-01-17T16:31:12.872Z,1.63
2019-01-17T16:33:41.945Z,1.60
2019-01-17T16:36:12.479Z,1.33
2019-01-17T16:38:41.848Z,1.90
2019-01-17T16:41:10.848Z,2.40
2019-01-17T16:43:39.894Z,2.00
2019-01-17T16:46:08.907Z,1.63
2019-01-17T16:48:39.304Z,1.50
2019-01-17T16:51:09.912Z,1.57
2019-01-17T16:53:39.026Z,2.20
2019-01-17T16:56:08.201Z,1.77
2019-01-17T16:58:37.697Z,1.90
2019-01-17T17:01:08.949Z,2.07
2019-01-17T17:03:38.266Z,2.50
2019-01-17T17:06:10.053Z,2.43
2019-01-17T17:08:45.589Z,1.90
2019-01-17T17:11:15.038Z,2.00
2019-01-17T17:13:44.122Z,1.83
2019-01-17T17:16:13.268Z,2.00
2019-01-17T17:18:42.849Z,2.10
2019-01-17T17:21:11.899Z,2.67
2019-01-17T17:23:40.874Z,1.90
2019-01-17T17:26:10.499Z,2.07
2019-01-17T17:28:39.955Z,2.53
2019-01-17T17:31:08.910Z,2.10
2019-01-17T17:33:37.902Z,2.10
2019-01-17T17:36:10.184Z,2.20
2019-01-17T17:38:39.184Z,2.20
2019-01-17T17:41:08.167Z,6.80
2019-01-17T17:43:37.133Z,2.50
2019-01-17T17:46:06.328Z,2.73
2019-01-17T17:48:36.616Z,2.20
2019-01-17T17:51:07.781Z,2.50
2019-01-17T17:53:37.185Z,2.17
2019-01-17T17:56:09.131Z,2.80
2019-01-17T17:58:39.683Z,3.10
2019-01-17T18:01:16.643Z,2.70
2019-01-17T18:03:46.282Z,3.23
2019-01-17T18:06:15.486Z,3.43
2019-01-17T18:08:47.686Z,3.30
2019-01-17T18:11:16.748Z,3.57
2019-01-17T18:13:46.808Z,3.00
2019-01-17T18:16:15.954Z,3.23
2019-01-17T18:18:45.204Z,2.80
2019-01-17T18:21:15.527Z,2.93
2019-01-17T18:23:47.718Z,2.60
2019-01-17T18:26:17.207Z,2.20
2019-01-17T18:28:46.641Z,2.97
2019-01-17T18:31:18.463Z,2.30
2019-01-17T18:33:47.498Z,2.10
2019-01-17T18:36:16.513Z,3.03
2019-01-17T18:38:45.869Z,2.50
2019-01-17T18:41:14.979Z,2.67
2019-01-17T18:43:44.384Z,2.67
2019-01-17T18:46:13.771Z,2.50
2019-01-17T18:48:42.760Z,5.17
2019-01-17T18:51:12.115Z,3.63
2019-01-17T18:53:41.450Z,3.40
2019-01-17T18:56:10.618Z,2.97
2019-01-17T18:58:39.662Z,3.70
2019-01-17T19:01:08.741Z,3.70
2019-01-17T19:03:37.753Z,3.50
2019-01-17T19:06:07.330Z,3.60
2019-01-17T19:08:36.342Z,3.70
2019-01-17T19:11:05.842Z,3.93
2019-01-17T19:13:36.073Z,4.07
2019-01-17T19:16:05.210Z,4.90
2019-01-17T19:18:34.865Z,4.10
2019-01-17T19:21:03.892Z,3.80
2019-01-17T19:23:32.926Z,4.00
2019-01-17T19:26:01.965Z,4.40
2019-01-17T19:28:31.293Z,4.50
2019-01-17T19:31:00.341Z,4.60
2019-01-17T19:33:29.746Z,5.13
2019-01-17T19:35:59.166Z,5.43
2019-01-17T19:38:28.535Z,4.80
2019-01-17T19:40:58.238Z,6.10
2019-01-17T19:43:27.309Z,5.57
2019-01-17T19:45:57.190Z,5.13
2019-01-17T19:48:26.576Z,5.37
2019-01-17T19:50:55.643Z,5.50
2019-01-17T19:53:24.576Z,5.13
2019-01-17T19:55:54.253Z,5.23
2019-01-17T19:58:28.927Z,5.63
2019-01-17T20:00:54.480Z,6.27
2019-01-17T20:03:23.855Z,5.67
2019-01-17T20:05:53.746Z,7.23
2019-01-17T20:08:22.810Z,6.27
2019-01-17T20:10:51.813Z,5.90
2019-01-17T20:13:21.108Z,5.50
2019-01-17T20:15:50.152Z,5.47
2019-01-17T20:18:20.004Z,5.67
2019-01-17T20:20:50.223Z,5.43
2019-01-17T20:23:19.541Z,5.47
2019-01-17T20:25:48.876Z,6.13
2019-01-17T20:28:17.926Z,5.67
2019-01-17T20:30:46.877Z,5.43
2019-01-17T20:33:15.925Z,6.50
2019-01-17T20:35:44.984Z,6.70
2019-01-17T20:38:13.939Z,6.17
2019-01-17T20:40:43.168Z,7.07
2019-01-17T20:43:12.048Z,6.33
2019-01-17T20:45:41.370Z,7.00
2019-01-17T20:48:10.405Z,8.80
2019-01-17T20:50:39.410Z,6.87
2019-01-17T20:53:08.429Z,7.90
2019-01-17T20:55:39.289Z,7.77
2019-01-17T20:58:08.759Z,7.90
2019-01-17T21:01:08.182Z,7.37
2019-01-17T21:03:37.485Z,7.43
2019-01-17T21:06:07.124Z,7.50
2019-01-17T21:08:38.482Z,7.53
2019-01-17T21:11:08.094Z,8.23
2019-01-17T21:13:37.681Z,8.77
2019-01-17T21:16:07.100Z,9.33
2019-01-17T21:18:36.072Z,8.50
2019-01-17T21:21:05.095Z,9.30
2019-01-17T21:23:34.511Z,9.57
2019-01-17T21:26:03.462Z,9.17
2019-01-17T21:28:32.345Z,8.80
2019-01-17T21:31:01.332Z,9.17
2019-01-17T21:33:30.657Z,8.73
2019-01-17T21:35:59.680Z,9.60
2019-01-17T21:38:28.590Z,9.20
2019-01-17T21:40:57.649Z,8.07
2019-01-17T21:43:26.696Z,8.53
2019-01-17T21:45:56.305Z,8.50
2019-01-17T21:48:25.333Z,8.30
2019-01-17T21:50:54.494Z,7.63
2019-01-17T21:53:23.441Z,8.30
2019-01-17T21:55:52.472Z,7.27
2019-01-17T21:58:21.765Z,6.47
2019-01-17T22:00:50.747Z,8.13
2019-01-17T22:03:19.830Z,6.57
2019-01-17T22:05:52.516Z,6.50
2019-01-17T22:08:21.724Z,6.03
2019-01-17T22:10:51.277Z,6.40
2019-01-17T22:13:20.417Z,6.23
2019-01-17T22:15:54.416Z,6.37
2019-01-17T22:18:23.721Z,6.50
2019-01-17T22:20:53.138Z,6.00
2019-01-17T22:23:22.552Z,5.33
2019-01-17T22:25:51.523Z,6.10
2019-01-17T22:28:20.506Z,5.83
2019-01-17T22:30:49.556Z,5.20
2019-01-17T22:33:18.580Z,6.10
2019-01-17T22:35:50.950Z,6.80
2019-01-17T22:38:20.445Z,8.37
2019-01-17T22:40:51.189Z,6.23
2019-01-17T22:43:20.908Z,5.80
2019-01-17T22:45:50.000Z,5.30
2019-01-17T22:48:20.130Z,6.33
2019-01-17T22:50:49.433Z,7.10
2019-01-17T22:53:19.324Z,6.47
2019-01-17T22:55:48.613Z,6.43
2019-01-17T22:58:20.053Z,7.43
2019-01-17T23:01:01.911Z,7.00
2019-01-17T23:03:42.171Z,6.77
2019-01-17T23:06:13.958Z,6.63
2019-01-17T23:08:43.316Z,7.03
2019-01-17T23:11:12.787Z,6.90
2019-01-17T23:13:43.100Z,7.50
2019-01-17T23:16:12.511Z,6.57
2019-01-17T23:18:41.864Z,6.93
2019-01-17T23:21:30.060Z,6.77
2019-01-17T23:23:59.109Z,5.80
2019-01-17T23:26:28.506Z,5.70
2019-01-17T23:28:57.465Z,6.10
2019-01-17T23:31:26.929Z,5.70
2019-01-17T23:33:55.896Z,5.67
2019-01-17T23:36:25.724Z,6.60
2019-01-17T23:38:54.860Z,6.60
2019-01-17T23:41:23.852Z,6.23
2019-01-17T23:43:53.026Z,8.03
2019-01-17T23:46:22.015Z,7.53
2019-01-17T23:48:51.336Z,6.53
2019-01-17T23:51:21.100Z,6.90
2019-01-17T23:53:51.265Z,6.30
2019-01-17T23:56:20.231Z,6.93
2019-01-17T23:58:49.154Z,6.67
